Terminal Aerodrome Forecast
Issued by NWS

Home | Current Version | Previous Version | Text Only | Print | Product List | Glossary On
Versions: 1 2 3 4 5 6 7 8 9 10 11 12 13 14 15
000
FTUS43 KICT 261700
TAFSLN
TAF
KSLN 261732Z 2618/2718 23011KT P6SM SCT130
     FM270200 36009KT P6SM VCTS BKN090CB
     FM271300 01013KT P6SM SCT110=

USA.gov is the U.S. government's official web portal to all federal, state and local government web resources and services.